createdAt,value
2018-08-18T00:02:18.342Z,2.00
2018-08-18T00:07:28.391Z,2.00
2018-08-18T00:12:38.515Z,2.30
2018-08-18T00:17:48.649Z,1.93
2018-08-18T00:22:58.679Z,2.50
2018-08-18T00:28:15.964Z,2.50
2018-08-18T00:33:25.932Z,3.23
2018-08-18T00:38:35.954Z,2.93
2018-08-18T00:43:47.554Z,2.70
2018-08-18T00:48:57.927Z,2.77
2018-08-18T00:54:07.946Z,3.07
2018-08-18T00:59:27.978Z,2.50
2018-08-18T01:04:43.141Z,2.90
2018-08-18T01:09:53.138Z,3.40
2018-08-18T01:15:03.277Z,3.70
2018-08-18T01:20:13.230Z,3.07
2018-08-18T01:25:23.756Z,3.10
2018-08-18T01:30:33.750Z,3.80
2018-08-18T01:35:43.626Z,2.20
2018-08-18T01:40:53.680Z,2.43
2018-08-18T01:46:03.546Z,3.90
2018-08-18T01:51:18.620Z,4.23
2018-08-18T01:56:28.563Z,4.10
2018-08-18T02:01:38.656Z,4.20
2018-08-18T02:06:48.700Z,2.13
2018-08-18T02:11:58.794Z,4.03
2018-08-18T02:17:34.667Z,4.37
2018-08-18T02:22:44.663Z,4.73
2018-08-18T02:27:54.654Z,5.23
2018-08-18T02:33:04.682Z,5.60
2018-08-18T02:38:14.711Z,2.80
2018-08-18T02:43:24.803Z,4.27
2018-08-18T02:48:34.659Z,4.87
2018-08-18T02:53:44.659Z,3.57
2018-08-18T02:59:00.677Z,5.87
2018-08-18T03:04:11.961Z,6.03
2018-08-18T03:09:21.994Z,3.40
2018-08-18T03:14:32.310Z,4.23
2018-08-18T03:19:45.852Z,6.60
2018-08-18T03:24:55.720Z,3.27
2018-08-18T03:30:05.743Z,2.70
2018-08-18T03:35:15.714Z,4.07
2018-08-18T03:40:25.776Z,2.77
2018-08-18T03:45:35.783Z,3.97
2018-08-18T03:50:47.105Z,4.57
2018-08-18T03:55:56.921Z,4.93
2018-08-18T04:01:06.968Z,5.80
2018-08-18T04:06:16.955Z,3.27
2018-08-18T04:11:26.853Z,6.90
2018-08-18T04:16:45.252Z,3.37
2018-08-18T04:21:56.028Z,4.67
2018-08-18T04:27:06.023Z,6.13
2018-08-18T04:32:15.984Z,5.60
2018-08-18T04:37:25.923Z,6.33
2018-08-18T04:42:36.051Z,6.63
2018-08-18T04:47:46.174Z,6.07
2018-08-18T04:52:56.027Z,5.93
2018-08-18T04:58:06.111Z,6.87
2018-08-18T05:03:16.153Z,7.50
2018-08-18T05:08:27.394Z,3.70
2018-08-18T05:13:37.416Z,7.80
2018-08-18T05:18:47.679Z,7.10
2018-08-18T05:23:58.450Z,7.50
2018-08-18T05:29:08.257Z,6.67
2018-08-18T05:34:18.241Z,7.50
2018-08-18T05:39:28.214Z,3.57
2018-08-18T05:44:38.113Z,6.33
2018-08-18T05:49:48.057Z,6.17
2018-08-18T05:54:58.067Z,6.60
2018-08-18T06:00:13.516Z,5.70
2018-08-18T06:05:25.667Z,6.63
2018-08-18T06:10:35.695Z,6.77
2018-08-18T06:16:01.948Z,3.53
2018-08-18T06:21:11.983Z,5.30
2018-08-18T06:26:22.008Z,4.90
2018-08-18T06:31:31.928Z,5.70
2018-08-18T06:36:42.046Z,6.10
2018-08-18T06:41:51.962Z,4.57
2018-08-18T06:47:01.891Z,4.70
2018-08-18T06:52:14.130Z,4.70
2018-08-18T06:57:35.383Z,3.77
2018-08-18T07:02:45.323Z,5.70
2018-08-18T07:07:55.245Z,4.77
2018-08-18T07:13:07.861Z,4.07
2018-08-18T07:18:17.678Z,4.37
2018-08-18T07:23:27.778Z,2.93
2018-08-18T07:28:37.847Z,5.50
2018-08-18T07:33:47.843Z,4.77
2018-08-18T07:38:57.879Z,2.97
2018-08-18T07:44:07.735Z,3.53
2018-08-18T07:49:17.635Z,4.20
2018-08-18T07:54:27.625Z,3.80
2018-08-18T07:59:37.680Z,2.50
2018-08-18T08:04:48.731Z,5.10
2018-08-18T08:09:58.800Z,3.00
2018-08-18T08:15:08.687Z,4.10
2018-08-18T08:20:18.964Z,4.23
2018-08-18T08:25:29.382Z,2.93
2018-08-18T08:30:39.458Z,3.07
2018-08-18T08:35:49.539Z,2.80
2018-08-18T08:40:59.591Z,2.50
2018-08-18T08:46:09.559Z,2.27
2018-08-18T08:51:19.528Z,2.00
2018-08-18T08:56:34.971Z,2.27
2018-08-18T09:01:45.046Z,2.70
2018-08-18T09:06:55.886Z,4.20
2018-08-18T09:12:06.212Z,2.97
2018-08-18T09:17:16.260Z,3.57
2018-08-18T09:22:26.284Z,2.87
2018-08-18T09:27:36.297Z,2.40
2018-08-18T09:32:46.174Z,2.52
2018-08-18T09:38:00.217Z,2.00
2018-08-18T09:43:17.477Z,3.17
2018-08-18T09:48:27.499Z,2.70
2018-08-18T09:53:37.542Z,2.43
2018-08-18T09:58:47.556Z,2.40
2018-08-18T10:03:57.491Z,1.97
2018-08-18T10:09:08.418Z,2.10
2018-08-18T10:14:18.395Z,2.00
2018-08-18T10:19:29.672Z,2.27
2018-08-18T10:24:39.924Z,1.93
2018-08-18T10:29:49.857Z,1.90
2018-08-18T10:34:59.916Z,1.23
2018-08-18T10:40:11.092Z,2.43
2018-08-18T10:45:21.059Z,2.23
2018-08-18T10:50:46.306Z,2.13
2018-08-18T10:55:56.288Z,1.80
2018-08-18T11:01:06.327Z,1.87
2018-08-18T11:06:18.194Z,2.47
2018-08-18T11:11:28.128Z,2.13
2018-08-18T11:16:37.999Z,2.30
2018-08-18T11:21:53.390Z,1.97
2018-08-18T11:27:03.334Z,2.50
2018-08-18T11:32:13.496Z,1.50
2018-08-18T11:37:23.551Z,1.70
2018-08-18T11:42:33.563Z,1.50
2018-08-18T11:47:47.730Z,1.80
2018-08-18T11:52:57.752Z,1.47
2018-08-18T11:58:09.085Z,1.97
2018-08-18T12:03:21.742Z,1.50
2018-08-18T12:08:33.559Z,2.00
2018-08-18T12:13:43.583Z,2.30
2018-08-18T12:18:54.050Z,1.43
2018-08-18T12:24:04.024Z,1.60
2018-08-18T12:29:14.046Z,1.50
2018-08-18T12:34:24.198Z,1.43
2018-08-18T12:39:34.216Z,1.33
2018-08-18T12:44:44.178Z,1.20
2018-08-18T12:49:54.650Z,1.90
2018-08-18T12:55:04.687Z,1.30
2018-08-18T13:00:14.711Z,2.10
2018-08-18T13:05:26.029Z,1.30
2018-08-18T13:10:35.998Z,1.50
2018-08-18T13:15:46.024Z,1.47
2018-08-18T13:20:56.296Z,2.23
2018-08-18T13:26:06.425Z,2.17
2018-08-18T13:31:16.278Z,1.77
2018-08-18T13:36:26.147Z,1.20
2018-08-18T13:41:36.102Z,1.90
2018-08-18T13:46:49.196Z,1.40
2018-08-18T13:51:59.096Z,1.63
2018-08-18T13:57:09.435Z,1.90
2018-08-18T14:02:19.476Z,1.70
2018-08-18T14:07:29.879Z,1.80
2018-08-18T14:12:39.799Z,1.60
2018-08-18T14:18:02.857Z,1.40
2018-08-18T14:23:12.872Z,1.33
2018-08-18T14:28:22.963Z,2.00
2018-08-18T14:33:32.931Z,1.93
2018-08-18T14:38:44.656Z,1.90
2018-08-18T14:43:54.530Z,1.50
2018-08-18T14:49:04.610Z,1.57
2018-08-18T14:54:16.240Z,1.50
2018-08-18T14:59:36.431Z,1.77
2018-08-18T15:04:46.328Z,1.77
2018-08-18T15:09:56.375Z,1.70
2018-08-18T15:15:06.367Z,1.60
2018-08-18T15:20:16.353Z,1.33
2018-08-18T15:25:26.194Z,1.60
2018-08-18T15:30:37.383Z,1.80
2018-08-18T15:35:47.352Z,1.50
2018-08-18T15:40:57.438Z,1.50
2018-08-18T15:46:07.420Z,1.53
2018-08-18T15:51:17.464Z,1.63
2018-08-18T15:56:29.532Z,1.50
2018-08-18T16:01:39.428Z,1.30
2018-08-18T16:06:49.443Z,1.67
2018-08-18T16:11:59.391Z,1.70
2018-08-18T16:17:09.455Z,1.50
2018-08-18T16:22:19.396Z,1.13
2018-08-18T16:27:29.379Z,1.60
2018-08-18T16:32:39.357Z,1.60
2018-08-18T16:37:49.243Z,1.30
2018-08-18T16:42:59.974Z,2.10
2018-08-18T16:48:12.915Z,2.27
2018-08-18T16:53:22.907Z,2.80
2018-08-18T16:58:32.900Z,2.57
2018-08-18T17:03:42.867Z,2.57
2018-08-18T17:08:52.822Z,2.43
2018-08-18T17:14:06.031Z,1.90
2018-08-18T17:19:16.012Z,2.27
2018-08-18T17:24:26.082Z,2.40
2018-08-18T17:29:43.295Z,2.23
2018-08-18T17:34:53.196Z,2.60
2018-08-18T17:40:03.191Z,2.40
2018-08-18T17:45:13.387Z,1.93
2018-08-18T17:50:23.274Z,2.00
2018-08-18T17:55:33.156Z,2.50
2018-08-18T18:00:43.263Z,2.53
2018-08-18T18:05:54.080Z,2.37
2018-08-18T18:11:03.988Z,2.30
2018-08-18T18:16:26.223Z,2.20
2018-08-18T18:21:36.274Z,2.20
2018-08-18T18:26:50.135Z,2.73
2018-08-18T18:32:00.039Z,2.60
2018-08-18T18:37:10.060Z,2.30
2018-08-18T18:42:19.939Z,2.30
2018-08-18T18:47:30.123Z,2.50
2018-08-18T18:52:40.133Z,2.30
2018-08-18T18:58:01.797Z,3.00
2018-08-18T19:03:11.734Z,3.50
2018-08-18T19:08:22.346Z,2.87
2018-08-18T19:13:32.277Z,3.47
2018-08-18T19:18:42.304Z,3.20
2018-08-18T19:23:52.373Z,3.17
2018-08-18T19:29:02.429Z,3.63
2018-08-18T19:34:13.672Z,3.30
2018-08-18T19:39:25.908Z,3.60
2018-08-18T19:44:38.321Z,3.73
2018-08-18T19:49:48.544Z,4.67
2018-08-18T19:54:58.514Z,4.10
2018-08-18T20:00:17.899Z,3.70
2018-08-18T20:05:27.835Z,3.77
2018-08-18T20:10:45.007Z,3.60
2018-08-18T20:15:56.107Z,4.63
2018-08-18T20:21:06.075Z,4.83
2018-08-18T20:26:16.050Z,4.57
2018-08-18T20:31:26.007Z,4.30
2018-08-18T20:36:36.096Z,4.03
2018-08-18T20:41:46.096Z,4.47
2018-08-18T20:46:56.095Z,3.80
2018-08-18T20:52:06.260Z,4.13
2018-08-18T20:57:16.280Z,3.87
2018-08-18T21:02:26.088Z,3.97
2018-08-18T21:07:36.091Z,5.60
2018-08-18T21:12:46.923Z,4.83
2018-08-18T21:17:58.177Z,6.50
2018-08-18T21:23:08.155Z,5.33
2018-08-18T21:28:19.144Z,6.50
2018-08-18T21:33:29.136Z,6.47
2018-08-18T21:38:39.184Z,6.30
2018-08-18T21:43:49.039Z,5.80
2018-08-18T21:49:01.157Z,4.53
2018-08-18T21:54:05.048Z,6.03
2018-08-18T21:59:10.134Z,5.60
2018-08-18T22:04:13.886Z,6.33
2018-08-18T22:09:27.375Z,5.70
2018-08-18T22:14:31.135Z,5.30
2018-08-18T22:19:34.906Z,6.23
2018-08-18T22:24:38.677Z,6.13
2018-08-18T22:29:42.403Z,4.43
2018-08-18T22:34:46.149Z,6.43
2018-08-18T22:39:49.903Z,6.33
2018-08-18T22:44:53.709Z,6.60
2018-08-18T22:49:57.441Z,6.87
2018-08-18T22:55:01.447Z,6.83
2018-08-18T23:00:05.199Z,8.37
2018-08-18T23:05:09.024Z,6.80
2018-08-18T23:10:12.757Z,7.73
2018-08-18T23:15:16.531Z,7.80
2018-08-18T23:20:20.294Z,8.03
2018-08-18T23:25:25.651Z,8.03
2018-08-18T23:30:33.119Z,7.43
2018-08-18T23:35:36.864Z,8.13
2018-08-18T23:40:40.613Z,4.93
2018-08-18T23:45:49.334Z,6.90
2018-08-18T23:50:53.052Z,7.10
2018-08-18T23:55:59.187Z,4.70
